Latest Weather Observations for Ivanhoe Airport

IDN60801

Issued at 6:52 pm EST Wednesday 19 September 2018 (issued every 10 minutes, with the page automatically refreshed every 10 minutes)

About weather observations | Map of weather stations | Latest weather observations for NSW | Other Formats
Station Details ID: 049000 Name: IVANHOE AERODROME AWS Lat: -32.88 Lon: 144.31 Height: 100.0 m
Data from the previous 72 hours. | See also: Recent months at Ivanhoe Airport
Date/Time
EST
Temp
°C
App
Temp
°C
Dew
Point
°C
Rel
Hum
%
Delta-T
°C
Wind Press
QNH
hPa
Press
MSL
hPa
Rain since
9am
mm
Dir  Spd
km/h
Gust
km/h
Spd
kts
Gust
kts
19/06:30pm 15.9 11.1 -2.6 28 7.5 WSW 13 17 7 9 1016.7 1016.5 0.0
19/06:00pm 16.5 10.9 -3.0 26 7.9 WSW 17 24 9 13 1016.3 1016.2 0.0
19/05:30pm 17.4 11.7 -3.4 24 8.4 WSW 17 24 9 13 1015.8 1015.7 0.0
19/05:00pm 17.9 12.3 -2.9 24 8.5 WSW 17 28 9 15 1015.6 1015.5 0.0
19/04:30pm 18.3 12.7 -2.6 24 8.7 SW 17 26 9 14 1015.3 1015.2 0.0
19/04:00pm 18.7 13.2 -2.3 24 8.8 WSW 17 24 9 13 1015.3 1015.2 0.0
19/03:30pm 18.4 13.2 -2.5 24 8.7 S 15 24 8 13 1015.3 1015.2 0.0
19/03:00pm 17.9 12.3 -2.9 24 8.5 SW 17 30 9 16 1015.4 1015.3 0.0
19/02:30pm 17.6 11.7 -2.6 25 8.3 SW 19 30 10 16 1015.6 1015.5 0.0
19/02:00pm 17.6 12.0 -2.6 25 8.3 WSW 17 32 9 17 1015.7 1015.6 0.0
19/01:30pm 17.6 11.7 -2.6 25 8.3 SSW 19 33 10 18 1016.2 1016.1 0.0
19/01:00pm 17.5 11.6 -2.2 26 8.2 SW 19 30 10 16 1016.6 1016.4 0.0
19/12:30pm 16.2 9.3 -2.8 27 7.7 SSW 24 35 13 19 1016.9 1016.7 0.0
19/12:00pm 15.8 9.8 -1.7 30 7.2 SW 20 35 11 19 1017.3 1017.2 0.0
19/11:30am 15.6 10.0 0.2 35 6.6 SSW 19 30 10 16 1017.2 1017.1 0.0
19/11:00am 15.0 9.5 0.4 37 6.2 SW 19 33 10 18 1017.3 1017.2 0.0
19/10:30am 14.4 8.8 1.3 41 5.7 SW 20 30 11 16 1017.5 1017.4 0.0
19/10:00am 14.1 8.7 1.4 42 5.5 SSW 19 30 10 16 1017.7 1017.6 0.0
19/09:30am 13.2 7.9 2.1 47 4.9 SSW 19 28 10 15 1017.7 1017.6 0.0
19/09:00am 12.2 6.8 2.4 51 4.3 SW 20 32 11 17 1017.5 1017.4 0.0
19/08:30am 11.5 5.8 2.8 55 3.8 SSW 22 35 12 19 1017.4 1017.3 0.0
19/08:00am 10.7 5.3 2.5 57 3.5 SW 20 32 11 17 1017.0 1016.8 0.0
19/07:30am 10.0 5.1 2.1 58 3.4 SW 17 20 9 11 1016.6 1016.4 0.0
19/07:00am 9.2 4.7 1.9 60 3.1 SW 15 20 8 11 1016.0 1015.9 0.0
19/06:30am 8.8 3.9 1.9 62 2.9 SW 17 22 9 12 1015.4 1015.3 0.0
19/06:00am 8.9 5.1 2.0 62 2.9 SW 11 13 6 7 1015.3 1015.2 0.0
19/05:30am 9.7 4.7 1.6 57 3.4 SW 17 28 9 15 1014.9 1014.8 0.0
19/05:00am 10.1 4.9 2.5 59 3.3 SSW 19 26 10 14 1014.5 1014.4 0.0
19/04:30am 10.0 6.0 3.1 62 3.0 SW 13 17 7 9 1014.1 1014.0 0.0
19/04:00am 10.6 7.0 2.9 59 3.3 SW 11 15 6 8 1013.9 1013.8 0.0
19/03:30am 11.2 7.3 3.3 58 3.5 SW 13 17 7 9 1013.6 1013.5 0.0
19/03:00am 12.1 7.9 3.6 56 3.8 SW 15 22 8 12 1013.4 1013.3 0.0
19/02:30am 13.2 8.0 3.8 53 4.3 SW 20 28 11 15 1013.2 1013.1 0.0
19/02:00am 13.9 8.1 4.2 52 4.5 SW 24 37 13 20 1013.2 1013.1 0.0
19/01:30am 14.8 8.1 3.9 48 5.0 SW 28 37 15 20 1012.8 1012.7 0.0
19/01:00am 15.7 10.8 5.0 49 5.1 SW 20 30 11 16 1012.7 1012.6 0.0
19/12:30am 15.9 10.7 5.5 50 5.0 SSW 22 30 12 16 1012.7 1012.6 0.0
19/12:00am 16.3 10.3 3.4 42 6.0 SSW 24 32 13 17 1012.3 1012.2 0.0
 
Date/Time
EST
Temp
°C
App
Temp
°C
Dew
Point
°C
Rel
Hum
%
Delta-T
°C
Wind Press
QNH
hPa
Press
MSL
hPa
Rain since
9am
mm
Dir  Spd
km/h
Gust
km/h
Spd
kts
Gust
kts
18/11:30pm 16.8 11.2 0.9 34 7.0 SSW 20 30 11 16 1012.1 1012.0 0.0
18/11:00pm 17.2 11.4 -4.7 22 8.6 SSW 17 24 9 13 1011.7 1011.6 0.0
18/10:30pm 17.8 12.9 -11.9 12 10.1 NW 9 13 5 7 1011.2 1011.1 0.0
18/10:00pm 18.4 13.5 -11.5 12 10.3 NNW 9 11 5 6 1011.0 1010.9 0.0
18/09:30pm 18.8 13.5 -12.2 11 10.6 NNW 11 13 6 7 1011.3 1011.2 0.0
18/09:00pm 19.1 14.2 -12.0 11 10.7 NNW 9 11 5 6 1011.0 1010.9 0.0
18/08:30pm 18.6 13.7 -11.3 12 10.4 N 9 11 5 6 1011.1 1011.0 0.0
18/08:00pm 19.3 14.4 -11.9 11 10.8 N 9 11 5 6 1011.2 1011.1 0.0
18/07:30pm 18.9 14.3 -13.3 10 10.8 N 7 9 4 5 1010.7 1010.6 0.0
18/07:00pm 20.5 16.0 -12.1 10 11.4 NW 7 7 4 4 1011.0 1010.9 0.0
18/06:30pm 21.5 16.6 -12.7 9 12.0 NW 9 9 5 5 1010.8 1010.7 0.0
18/06:00pm 23.5 17.4 -12.6 8 13.0 NW 15 20 8 11 1010.6 1010.5 0.0
18/05:30pm 24.5 17.5 -11.9 8 13.4 NW 20 32 11 17 1010.5 1010.4 0.0
18/05:00pm 25.2 17.9 -11.4 8 13.7 NW 22 33 12 18 1010.3 1010.2 0.0
18/04:30pm 26.0 18.6 -12.4 7 14.2 NW 22 33 12 18 1010.3 1010.2 0.0
18/04:00pm 25.7 17.1 -12.6 7 14.1 NW 28 39 15 21 1010.3 1010.2 0.0
18/03:30pm 25.8 17.2 -12.6 7 14.2 NW 28 39 15 21 1010.6 1010.5 0.0
18/03:00pm 25.4 18.1 -11.2 8 13.8 NNW 22 39 12 21 1011.0 1010.9 0.0
18/02:30pm 25.6 17.5 -11.1 8 13.9 NW 26 43 14 23 1011.3 1011.2 0.0
18/02:00pm 25.3 18.0 -11.3 8 13.8 NNW 22 39 12 21 1011.8 1011.7 0.0
18/01:30pm 24.9 17.3 -10.1 9 13.4 NNW 24 37 13 20 1012.3 1012.2 0.0
18/01:00pm 24.4 16.0 -10.5 9 13.2 NW 28 39 15 21 1012.9 1012.8 0.0
18/12:30pm 24.2 17.3 -10.6 9 13.1 NW 20 43 11 23 1013.6 1013.5 0.0
18/12:00pm 23.8 16.6 -9.6 10 12.7 NNW 22 33 12 18 1014.3 1014.2 0.0
18/11:30am 22.7 14.4 -9.2 11 12.1 N 28 39 15 21 1014.7 1014.6 0.0
18/11:00am 22.7 15.5 -9.2 11 12.1 NNW 22 35 12 19 1015.2 1015.1 0.0
18/10:30am 21.6 13.7 -9.0 12 11.5 NNW 26 37 14 20 1015.6 1015.5 0.0
18/10:00am 20.9 13.9 -7.6 14 10.9 NNW 22 32 12 17 1015.9 1015.8 0.0
18/09:30am 19.6 12.6 -7.7 15 10.3 N 22 32 12 17 1016.0 1015.9 0.0
18/09:00am 18.1 11.7 -7.3 17 9.5 N 19 26 10 14 1016.1 1016.0 0.0
18/08:30am 16.9 11.6 -6.8 19 8.9 N 13 20 7 11 1016.1 1016.0 0.0
18/08:00am 13.6 7.1 -7.7 22 7.5 N 19 28 10 15 1015.9 1015.8 0.0
18/07:30am 11.3 5.2 -7.5 26 6.5 N 17 22 9 12 1016.1 1016.0 0.0
18/07:00am 7.5 1.7 -8.5 31 5.1 NNE 15 17 8 9 1016.2 1016.1 0.0
18/06:30am 5.7 -0.2 -9.3 33 4.6 NNE 15 17 8 9 1016.2 1016.1 0.0
18/06:00am 6.1 0.7 -8.9 33 4.6 NNE 13 15 7 8 1016.3 1016.2 0.0
18/05:30am 6.2 0.8 -8.8 33 4.7 N 13 15 7 8 1016.1 1016.0 0.0
18/05:00am 6.0 0.6 -9.0 33 4.6 N 13 15 7 8 1016.0 1015.9 0.0
18/04:30am 6.5 1.1 -9.0 32 4.8 NNE 13 15 7 8 1015.9 1015.8 0.0
18/04:00am 7.4 2.4 -8.6 31 5.1 N 11 13 6 7 1015.9 1015.8 0.0
18/03:30am 7.9 2.5 -8.6 30 5.3 N 13 13 7 7 1015.9 1015.8 0.0
18/03:00am 7.8 2.4 -8.7 30 5.3 N 13 13 7 7 1016.0 1015.9 0.0
18/02:30am 8.2 3.2 -8.3 30 5.3 N 11 13 6 7 1016.1 1016.0 0.0
18/02:00am 8.5 3.1 -8.5 29 5.5 N 13 13 7 7 1016.6 1016.4 0.0
18/01:30am 9.8 4.8 -8.3 27 6.0 N 11 13 6 7 1016.8 1016.6 0.0
18/01:00am 10.9 5.9 -8.3 25 6.4 N 11 13 6 7 1017.0 1016.8 0.0
18/12:30am 11.4 6.0 -8.4 24 6.7 N 13 15 7 8 1016.9 1016.7 0.0
18/12:00am 12.2 6.9 -7.7 24 6.9 N 13 17 7 9 1017.1 1016.9 0.0
 
Date/Time
EST
Temp
°C
App
Temp
°C
Dew
Point
°C
Rel
Hum
%
Delta-T
°C
Wind Press
QNH
hPa
Press
MSL
hPa
Rain since
9am
mm
Dir  Spd
km/h
Gust
km/h
Spd
kts
Gust
kts
17/11:30pm 12.4 7.5 -7.6 24 7.0 N 11 15 6 8 1017.4 1017.3 0.0
17/11:00pm 11.5 6.2 -7.3 26 6.5 N 13 15 7 8 1017.4 1017.3 0.0
17/10:30pm 11.3 6.0 -7.5 26 6.5 NNE 13 13 7 7 1017.5 1017.4 0.0
17/10:00pm 12.2 6.9 -7.2 25 6.8 NNE 13 13 7 7 1017.7 1017.6 0.0
17/09:30pm 12.7 8.2 -7.3 24 7.0 N 9 9 5 5 1017.9 1017.8 0.0
17/09:00pm 13.8 9.2 -7.5 22 7.5 N 9 11 5 6 1018.1 1018.0 0.0
17/08:30pm 14.7 9.8 -7.4 21 8.0 NNW 11 11 6 6 1018.1 1018.0 0.0
17/08:00pm 15.3 10.7 -7.5 20 8.2 NNW 9 11 5 6 1018.2 1018.1 0.0
17/07:30pm 15.7 11.2 -7.2 20 8.4 NNW 9 9 5 5 1018.2 1018.1 0.0
17/07:00pm 16.3 11.8 -7.3 19 8.7 NNW 9 9 5 5 1018.1 1018.0 0.0
17/06:30pm 17.2 13.0 -8.0 17 9.2 NW 7 9 4 5 1017.9 1017.8 0.0
17/06:00pm 18.8 13.9 -7.5 16 9.9 N 11 15 6 8 1017.7 1017.6 0.0
17/05:30pm 20.0 14.7 -7.4 15 10.5 NNW 13 22 7 12 1017.7 1017.6 0.0
17/05:00pm 20.0 14.7 -7.4 15 10.5 NNW 13 26 7 14 1017.9 1017.8 0.0
17/04:30pm 20.5 15.2 -7.0 15 10.7 N 13 20 7 11 1017.9 1017.8 0.0
17/04:00pm 20.5 14.9 -6.1 16 10.5 N 15 22 8 12 1017.9 1017.8 0.0
17/03:30pm 20.7 16.7 -6.0 16 10.6 ENE 7 17 4 9 1018.1 1018.0 0.0
17/03:00pm 20.1 14.2 -5.7 17 10.2 N 17 28 9 15 1018.5 1018.4 0.0
17/02:30pm 19.7 14.2 -5.3 18 9.9 N 15 20 8 11 1019.0 1018.9 0.0
17/02:00pm 19.5 14.4 -5.4 18 9.8 NNW 13 20 7 11 1019.6 1019.5 0.0
17/01:30pm 19.4 14.3 -4.8 19 9.7 NNE 13 24 7 13 1020.2 1020.1 0.0
17/01:00pm 18.6 13.9 -4.8 20 9.3 NNE 11 20 6 11 1020.8 1020.7 0.0
17/12:30pm 18.0 13.0 -4.6 21 9.0 N 13 22 7 12 1021.4 1021.3 0.0
17/12:00pm 17.1 12.5 -4.2 23 8.4 NE 11 19 6 10 1022.1 1022.0 0.0
17/11:30am 16.7 10.9 -4.5 23 8.3 NNE 17 28 9 15 1022.7 1022.6 0.0
17/11:00am 16.4 11.4 -4.2 24 8.1 N 13 22 7 12 1023.1 1023.0 0.0
17/10:30am 16.1 10.4 -3.9 25 7.9 NNE 17 24 9 13 1023.5 1023.4 0.0
17/10:00am 15.5 10.0 -5.0 24 7.8 NE 15 22 8 12 1023.9 1023.8 0.0
17/09:30am 14.3 8.9 -4.9 26 7.3 NE 15 20 8 11 1024.1 1024.0 0.0
17/09:00am 13.6 8.1 -5.0 27 6.9 NE 15 19 8 10 1024.1 1024.0 0.0
17/08:30am 12.0 7.3 -5.0 30 6.3 NNE 11 13 6 7 1024.3 1024.2 0.0
17/08:00am 9.6 5.7 -5.1 35 5.2 NE 7 9 4 5 1024.1 1024.0 0.0
17/07:30am 7.0 3.0 -5.3 41 4.2 ENE 7 9 4 5 1023.9 1023.8 0.0
17/07:00am 4.7 0.3 -5.9 46 3.4 ESE 9 11 5 6 1023.4 1023.3 0.0
17/06:30am 2.9 -1.6 -6.5 50 3.1 ESE 9 11 5 6 1023.5 1023.4 0.0
17/06:00am 3.2 -1.3 -6.5 49 3.0 SE 9 11 5 6 1023.3 1023.2 0.0
17/05:30am 3.8 -1.0 -5.9 49 3.1 SSE 11 13 6 7 1023.2 1023.1 0.0
17/05:00am 3.9 -0.5 -5.6 50 3.1 S 9 11 5 6 1023.1 1023.0 0.0
17/04:30am 3.3 0.6 -6.1 50 3.0 CALM 0 0 0 0 1022.8 1022.7 0.0
17/04:00am 3.8 1.2 -5.1 52 2.9 CALM 0 0 0 0 1022.6 1022.5 0.0
17/03:30am 4.7 2.1 -5.1 49 3.3 CALM 0 0 0 0 1022.5 1022.4 0.0
17/03:00am 4.7 2.1 -4.8 50 3.2 CALM 0 0 0 0 1022.7 1022.6 0.0
17/02:30am 5.0 2.4 -5.1 48 3.4 CALM 0 0 0 0 1022.9 1022.8 0.0
17/02:00am 5.2 1.4 -5.5 46 3.5 ENE 6 7 3 4 1023.2 1023.1 0.0
17/01:30am 6.2 2.5 -4.5 46 3.7 E 6 6 3 3 1023.3 1023.2 0.0
17/01:00am 7.2 3.5 -4.5 43 4.1 E 6 7 3 4 1023.5 1023.4 0.0
17/12:30am 7.6 3.7 -4.8 41 4.3 E 7 7 4 4 1023.6 1023.5 0.0
17/12:00am 7.4 3.4 -5.3 40 4.4 E 7 9 4 5 1023.7 1023.6 0.0
 
Date/Time
EST
Temp
°C
App
Temp
°C
Dew
Point
°C
Rel
Hum
%
Delta-T
°C
Wind Press
QNH
hPa
Press
MSL
hPa
Rain since
9am
mm
Dir  Spd
km/h
Gust
km/h
Spd
kts
Gust
kts
16/11:30pm 7.9 4.2 -4.8 40 4.5 ESE 6 7 3 4 1023.8 1023.7 0.0
16/11:00pm 8.3 4.4 -4.8 39 4.6 ESE 7 9 4 5 1024.0 1023.9 0.0
16/10:30pm 8.8 4.9 -4.4 39 4.7 ESE 7 7 4 4 1024.2 1024.1 0.0
16/10:00pm 8.8 4.9 -5.1 37 4.9 ESE 7 7 4 4 1024.3 1024.2 0.0
16/09:30pm 9.2 5.2 -5.4 35 5.1 ESE 7 9 4 5 1024.2 1024.1 0.0
16/09:00pm 9.7 5.7 -5.4 34 5.3 SE 7 9 4 5 1024.0 1023.9 0.0
16/08:30pm 10.5 6.2 -5.1 33 5.6 SSE 9 9 5 5 1023.8 1023.7 0.0
16/08:00pm 11.1 7.2 -4.5 33 5.7 SSE 7 9 4 5 1023.8 1023.7 0.0
16/07:30pm 11.4 7.5 -4.7 32 5.9 S 7 9 4 5 1023.5 1023.4 0.0
16/07:00pm 11.6 7.6 -5.8 29 6.2 S 7 9 4 5 1023.3 1023.2 0.0

Other Formats:

Comma delimited format used in spreadsheet applications
http://www.bom.gov.au/fwo/IDN60801/IDN60801.95697.axf

JavaScript Object Notation format (JSON) in row-major order
http://www.bom.gov.au/fwo/IDN60801/IDN60801.95697.json